Time,TemperatureF,DewpointF,PressureIn,WindDirection,WindDirectionDegrees,WindSpeedMPH,WindSpeedGustMPH,Humidity,HourlyPrecipIn,Conditions,Clouds,dailyrainin,SoftwareType,DateUTC
2013-07-30 00:02:00,70.8,68.4,29.58,SSE,158,0.0,0.0,92,0.00,,,0.00,WUHU216HW,2013-07-30 05:02:00,
2013-07-30 00:07:00,71.0,68.6,29.58,SSE,158,0.0,0.0,92,0.00,,,0.00,WUHU216HW,2013-07-30 05:07:00,
2013-07-30 00:12:00,71.2,68.7,29.58,SE,135,0.0,0.0,92,0.00,,,0.00,WUHU216HW,2013-07-30 05:12:00,
2013-07-30 00:17:00,71.2,68.7,29.59,SSE,158,0.0,0.0,92,0.00,,,0.00,WUHU216HW,2013-07-30 05:17:00,
2013-07-30 00:22:00,71.2,68.7,29.59,SSE,158,0.0,0.0,92,0.00,,,0.00,WUHU216HW,2013-07-30 05:22:00,
2013-07-30 00:27:00,71.2,68.7,29.59,SE,135,0.0,0.0,92,0.00,,,0.00,WUHU216HW,2013-07-30 05:27:00,
2013-07-30 00:32:00,71.4,68.9,29.58,SSE,158,0.0,0.0,92,0.00,,,0.00,WUHU216HW,2013-07-30 05:32:00,
2013-07-30 00:38:00,71.4,68.9,29.58,SSE,158,0.0,0.0,92,0.00,,,0.00,WUHU216HW,2013-07-30 05:38:00,
2013-07-30 00:43:00,71.4,68.9,29.58,SE,135,0.0,0.0,92,0.00,,,0.00,WUHU216HW,2013-07-30 05:43:00,
2013-07-30 00:48:00,71.4,68.9,29.58,SSE,158,0.0,0.0,92,0.00,,,0.00,WUHU216HW,2013-07-30 05:48:00,
2013-07-30 00:53:00,71.4,68.9,29.59,SSE,158,0.0,0.0,92,0.00,,,0.00,WUHU216HW,2013-07-30 05:53:00,
2013-07-30 00:57:00,71.4,68.9,29.58,South,180,0.0,0.0,92,0.00,,,0.00,WUHU216HW,2013-07-30 05:57:00,
2013-07-30 01:02:00,71.6,69.1,29.58,SSE,158,0.0,0.0,92,0.00,,,0.00,WUHU216HW,2013-07-30 06:02:00,
2013-07-30 01:10:00,71.6,69.1,29.58,SSE,158,0.0,0.0,92,0.00,,,0.00,WUHU216HW,2013-07-30 06:10:00,
2013-07-30 01:15:00,71.7,69.3,29.58,SSE,158,0.0,0.0,92,0.00,,,0.00,WUHU216HW,2013-07-30 06:15:00,
2013-07-30 01:20:00,71.7,69.3,29.58,SSE,158,0.0,0.0,92,0.00,,,0.00,WUHU216HW,2013-07-30 06:20:00,
2013-07-30 01:25:00,71.7,69.3,29.58,SSE,158,0.0,0.0,92,0.00,,,0.00,WUHU216HW,2013-07-30 06:25:00,
2013-07-30 01:30:00,71.7,69.3,29.59,SSE,158,0.0,0.0,92,0.00,,,0.00,WUHU216HW,2013-07-30 06:30:00,
2013-07-30 01:35:00,71.7,69.3,29.59,SSE,158,0.0,0.0,92,0.00,,,0.00,WUHU216HW,2013-07-30 06:35:00,
2013-07-30 01:40:00,71.7,69.3,29.58,SSE,158,0.0,0.0,92,0.00,,,0.00,WUHU216HW,2013-07-30 06:40:00,
2013-07-30 01:45:00,71.7,69.3,29.58,SSE,158,0.0,0.0,92,0.00,,,0.00,WUHU216HW,2013-07-30 06:45:00,
2013-07-30 01:50:00,71.7,69.3,29.58,SSE,158,0.0,0.0,92,0.00,,,0.00,WUHU216HW,2013-07-30 06:50:00,
2013-07-30 01:55:00,71.7,69.3,29.58,SE,135,0.0,0.0,92,0.00,,,0.00,WUHU216HW,2013-07-30 06:55:00,
2013-07-30 02:00:00,71.7,69.3,29.58,South,180,0.0,0.0,92,0.00,,,0.00,WUHU216HW,2013-07-30 07:00:00,
2013-07-30 02:08:00,71.7,69.3,29.57,South,180,0.0,0.0,92,0.00,,,0.00,WUHU216HW,2013-07-30 07:08:00,
2013-07-30 02:13:00,71.7,69.3,29.57,SSE,158,0.0,0.0,92,0.00,,,0.00,WUHU216HW,2013-07-30 07:13:00,
2013-07-30 02:18:00,71.7,69.3,29.57,SSE,158,0.0,0.0,92,0.00,,,0.00,WUHU216HW,2013-07-30 07:18:00,
2013-07-30 02:23:00,71.7,69.3,29.57,SSE,158,0.0,0.0,92,0.00,,,0.00,WUHU216HW,2013-07-30 07:23:00,
2013-07-30 02:28:00,71.6,69.1,29.57,SSE,158,0.0,0.0,92,0.00,,,0.00,WUHU216HW,2013-07-30 07:28:00,
2013-07-30 02:33:00,71.4,68.9,29.57,SSE,158,0.0,0.0,92,0.00,,,0.00,WUHU216HW,2013-07-30 07:33:00,
2013-07-30 02:38:00,71.4,68.9,29.58,SSE,158,0.0,0.0,92,0.00,,,0.00,WUHU216HW,2013-07-30 07:38:00,
2013-07-30 02:43:00,71.4,68.9,29.58,SSE,158,0.0,0.0,92,0.00,,,0.00,WUHU216HW,2013-07-30 07:43:00,
2013-07-30 02:48:00,71.4,68.9,29.58,SSE,158,0.0,0.0,92,0.00,,,0.00,WUHU216HW,2013-07-30 07:48:00,
2013-07-30 02:53:00,71.4,68.9,29.58,SSE,158,0.0,0.0,92,0.00,,,0.00,WUHU216HW,2013-07-30 07:53:00,
2013-07-30 02:58:00,71.4,68.9,29.58,SSE,158,0.0,0.0,92,0.00,,,0.00,WUHU216HW,2013-07-30 07:58:00,
2013-07-30 03:03:00,71.4,68.9,29.58,SE,135,0.0,0.0,92,0.00,,,0.00,WUHU216HW,2013-07-30 08:03:00,
2013-07-30 03:08:00,71.4,68.9,29.58,SSE,158,0.0,0.0,92,0.00,,,0.00,WUHU216HW,2013-07-30 08:08:00,
2013-07-30 03:13:00,71.4,68.9,29.58,South,180,0.0,0.0,92,0.00,,,0.00,WUHU216HW,2013-07-30 08:13:00,
2013-07-30 03:18:00,71.4,68.9,29.58,SSW,203,0.0,4.0,92,0.00,,,0.00,WUHU216HW,2013-07-30 08:18:00,
2013-07-30 03:23:00,71.4,68.9,29.58,SE,135,0.0,4.0,92,0.00,,,0.00,WUHU216HW,2013-07-30 08:23:00,
2013-07-30 03:28:00,71.4,68.9,29.58,SSE,158,0.0,0.0,92,0.00,,,0.00,WUHU216HW,2013-07-30 08:28:00,
2013-07-30 03:33:00,71.4,68.9,29.58,South,180,0.0,0.0,92,0.00,,,0.00,WUHU216HW,2013-07-30 08:33:00,
2013-07-30 03:38:00,71.4,68.9,29.58,South,180,0.0,0.0,92,0.00,,,0.00,WUHU216HW,2013-07-30 08:38:00,
2013-07-30 03:43:00,71.4,68.9,29.58,SE,135,0.0,0.0,92,0.00,,,0.00,WUHU216HW,2013-07-30 08:43:00,
2013-07-30 03:48:00,71.4,68.9,29.58,SSE,158,0.0,0.0,92,0.00,,,0.00,WUHU216HW,2013-07-30 08:48:00,
2013-07-30 03:53:00,71.4,68.9,29.58,SSE,158,0.0,0.0,92,0.00,,,0.00,WUHU216HW,2013-07-30 08:53:00,
2013-07-30 03:58:00,71.4,68.9,29.58,SSE,158,0.0,0.0,92,0.00,,,0.00,WUHU216HW,2013-07-30 08:58:00,
2013-07-30 04:03:00,71.4,68.9,29.58,SSE,158,0.0,0.0,92,0.00,,,0.00,WUHU216HW,2013-07-30 09:03:00,
2013-07-30 04:08:00,71.4,68.9,29.58,SSE,158,0.0,0.0,92,0.06,,,0.02,WUHU216HW,2013-07-30 09:08:00,
2013-07-30 04:13:00,71.4,68.9,29.58,SSE,158,0.0,0.0,92,0.26,,,0.26,WUHU216HW,2013-07-30 09:13:00,
2013-07-30 04:18:00,71.2,68.7,29.58,SSE,158,0.0,0.0,92,0.51,,,0.50,WUHU216HW,2013-07-30 09:18:00,
2013-07-30 04:23:00,71.2,68.7,29.58,SSE,158,0.0,0.0,92,0.51,,,0.50,WUHU216HW,2013-07-30 09:23:00,
2013-07-30 04:28:00,71.2,68.7,29.58,SSE,158,0.0,0.0,92,0.51,,,0.50,WUHU216HW,2013-07-30 09:28:00,
2013-07-30 04:33:00,71.2,68.7,29.58,SSE,158,0.0,0.0,92,0.51,,,0.50,WUHU216HW,2013-07-30 09:33:00,
2013-07-30 04:38:00,71.2,68.7,29.58,SSE,158,0.0,0.0,92,0.51,,,0.50,WUHU216HW,2013-07-30 09:38:00,
2013-07-30 08:15:00,71.0,68.9,29.60,SSE,158,0.0,0.0,93,0.59,,,0.50,WUHU216HW,2013-07-30 13:15:00,
2013-07-30 08:20:00,71.2,69.0,29.60,SSE,158,0.0,0.0,93,0.59,,,1.10,WUHU216HW,2013-07-30 13:20:00,
2013-07-30 08:25:00,71.2,69.0,29.61,SSE,158,0.0,0.0,93,0.59,,,1.10,WUHU216HW,2013-07-30 13:25:00,
2013-07-30 08:30:00,71.2,69.0,29.61,SSE,158,0.0,0.0,93,0.59,,,1.10,WUHU216HW,2013-07-30 13:30:00,
2013-07-30 08:35:00,71.2,69.0,29.60,SSE,158,0.0,0.0,93,0.59,,,1.10,WUHU216HW,2013-07-30 13:35:00,
2013-07-30 08:40:00,71.4,69.2,29.60,SE,135,0.0,0.0,93,0.59,,,1.10,WUHU216HW,2013-07-30 13:40:00,
2013-07-30 08:45:00,71.7,69.6,29.61,South,180,0.0,0.0,93,0.59,,,1.10,WUHU216HW,2013-07-30 13:45:00,
2013-07-30 08:50:00,71.7,69.6,29.60,North,0,0.0,0.0,93,0.59,,,1.10,WUHU216HW,2013-07-30 13:50:00,
2013-07-30 08:55:00,72.1,69.9,29.61,WSW,248,0.0,0.0,93,0.59,,,1.10,WUHU216HW,2013-07-30 13:55:00,
2013-07-30 09:00:00,72.3,70.1,29.61,ESE,113,0.0,0.0,93,0.59,,,1.10,WUHU216HW,2013-07-30 14:00:00,
2013-07-30 09:05:00,72.5,70.3,29.61,SW,225,0.0,0.0,93,0.51,,,1.10,WUHU216HW,2013-07-30 14:05:00,
2013-07-30 09:10:00,72.6,70.5,29.61,WSW,248,0.0,0.0,93,0.51,,,1.10,WUHU216HW,2013-07-30 14:10:00,
2013-07-30 09:15:00,73.0,70.8,29.61,WSW,248,0.0,0.0,93,0.00,,,1.10,WUHU216HW,2013-07-30 14:15:00,
2013-07-30 09:20:00,73.2,71.0,29.61,SW,225,0.0,0.0,93,0.00,,,1.10,WUHU216HW,2013-07-30 14:20:00,
2013-07-30 09:25:00,73.4,71.2,29.61,SSW,203,0.0,0.0,93,0.00,,,1.10,WUHU216HW,2013-07-30 14:25:00,
2013-07-30 09:30:00,73.4,71.2,29.61,West,270,0.0,0.0,93,0.00,,,1.10,WUHU216HW,2013-07-30 14:30:00,
2013-07-30 09:35:00,73.5,71.2,29.61,WNW,293,0.0,0.0,93,0.02,,,1.12,WUHU216HW,2013-07-30 14:35:00,
2013-07-30 09:40:00,73.2,71.0,29.61,WNW,293,0.0,0.0,93,0.02,,,1.12,WUHU216HW,2013-07-30 14:40:00,
2013-07-30 09:45:00,73.2,71.0,29.61,NW,315,0.0,0.0,93,0.02,,,1.12,WUHU216HW,2013-07-30 14:45:00,
2013-07-30 09:50:00,73.2,71.0,29.61,NW,315,0.0,0.0,93,0.02,,,1.12,WUHU216HW,2013-07-30 14:50:00,
2013-07-30 09:58:00,73.0,70.8,29.61,NNW,338,0.0,0.0,93,0.02,,,1.12,WUHU216HW,2013-07-30 14:58:00,
2013-07-30 10:03:00,73.2,71.0,29.61,West,270,0.0,0.0,93,0.02,,,1.12,WUHU216HW,2013-07-30 15:03:00,
2013-07-30 10:08:00,73.2,70.7,29.61,West,270,0.0,0.0,92,0.02,,,1.12,WUHU216HW,2013-07-30 15:08:00,
2013-07-30 10:13:00,73.5,71.1,29.61,WNW,293,0.0,0.0,92,0.02,,,1.12,WUHU216HW,2013-07-30 15:13:00,
2013-07-30 10:18:00,73.5,71.3,29.60,WSW,248,0.0,0.0,92,0.02,,,1.12,WUHU216HW,2013-07-30 15:18:00,
2013-07-30 10:23:00,73.9,71.4,29.61,SW,225,0.0,0.0,92,0.02,,,1.12,WUHU216HW,2013-07-30 15:23:00,
2013-07-30 10:28:00,74.3,71.8,29.60,WNW,293,0.0,0.0,92,0.00,,,1.12,WUHU216HW,2013-07-30 15:28:00,
2013-07-30 10:33:00,74.6,72.2,29.60,West,270,0.0,2.4,92,0.00,,,1.12,WUHU216HW,2013-07-30 15:33:00,
2013-07-30 10:38:00,74.8,72.3,29.61,NW,315,0.0,2.4,92,0.00,,,1.12,WUHU216HW,2013-07-30 15:38:00,
2013-07-30 10:43:00,75.3,72.9,29.60,West,270,0.0,0.0,92,0.00,,,1.12,WUHU216HW,2013-07-30 15:43:00,
2013-07-30 10:48:00,75.5,72.8,29.60,West,270,0.0,0.0,91,0.00,,,1.12,WUHU216HW,2013-07-30 15:48:00,
2013-07-30 10:53:00,75.7,72.9,29.61,North,0,0.0,0.0,91,0.00,,,1.12,WUHU216HW,2013-07-30 15:53:00,
2013-07-30 10:58:00,75.5,72.8,29.61,WNW,293,0.0,0.0,91,0.00,,,1.12,WUHU216HW,2013-07-30 15:58:00,
2013-07-30 11:03:00,75.7,72.6,29.61,WNW,293,0.0,0.0,90,0.00,,,1.12,WUHU216HW,2013-07-30 16:03:00,
2013-07-30 11:08:00,75.9,72.8,29.61,NW,315,0.0,0.0,90,0.00,,,1.12,WUHU216HW,2013-07-30 16:08:00,
2013-07-30 11:13:00,75.9,72.8,29.61,North,0,4.6,4.6,90,0.00,,,1.12,WUHU216HW,2013-07-30 16:13:00,
2013-07-30 11:18:00,75.9,72.5,29.61,WNW,293,0.0,4.6,89,0.00,,,1.12,WUHU216HW,2013-07-30 16:18:00,
2013-07-30 11:23:00,76.1,72.3,29.61,North,0,0.6,0.6,88,0.00,,,1.12,WUHU216HW,2013-07-30 16:23:00,
2013-07-30 11:28:00,76.2,72.5,29.62,NW,315,0.0,0.6,88,0.00,,,1.12,WUHU216HW,2013-07-30 16:28:00,
2013-07-30 11:33:00,76.2,72.5,29.61,West,270,0.0,0.6,88,0.00,,,1.12,WUHU216HW,2013-07-30 16:33:00,
2013-07-30 11:38:00,76.6,72.8,29.62,WNW,293,0.0,0.0,88,0.00,,,1.12,WUHU216HW,2013-07-30 16:38:00,
2013-07-30 11:43:00,76.8,72.6,29.61,NNW,338,0.0,0.0,87,0.00,,,1.12,WUHU216HW,2013-07-30 16:43:00,
2013-07-30 11:48:00,77.1,73.0,29.61,NNW,338,0.0,0.0,87,0.00,,,1.12,WUHU216HW,2013-07-30 16:48:00,
2013-07-30 11:53:00,77.5,73.4,29.61,NNW,338,0.0,0.0,87,0.00,,,1.12,WUHU216HW,2013-07-30 16:53:00,
2013-07-30 11:58:00,78.0,73.9,29.61,NNW,338,0.0,0.0,87,0.00,,,1.12,WUHU216HW,2013-07-30 16:58:00,
2013-07-30 12:03:00,78.4,73.7,29.61,WNW,293,0.0,0.0,85,0.00,,,1.12,WUHU216HW,2013-07-30 17:03:00,
2013-07-30 12:08:00,78.6,73.4,29.61,WNW,293,0.0,0.0,84,0.00,,,1.12,WUHU216HW,2013-07-30 17:08:00,
2013-07-30 12:13:00,78.4,72.8,29.61,North,0,5.5,5.5,83,0.00,,,1.12,WUHU216HW,2013-07-30 17:13:00,
2013-07-30 12:18:00,78.4,73.2,29.61,WNW,293,0.0,5.5,84,0.00,,,1.12,WUHU216HW,2013-07-30 17:18:00,
2013-07-30 12:23:00,78.6,73.0,29.61,NNW,338,0.0,0.0,83,0.00,,,1.12,WUHU216HW,2013-07-30 17:23:00,
2013-07-30 12:28:00,78.6,73.0,29.61,NW,315,4.0,4.0,83,0.00,,,1.12,WUHU216HW,2013-07-30 17:28:00,
2013-07-30 12:33:00,78.9,73.3,29.61,NW,315,0.0,4.0,83,0.00,,,1.12,WUHU216HW,2013-07-30 17:33:00,
2013-07-30 12:38:00,78.9,73.0,29.61,NNW,338,3.5,3.8,82,0.00,,,1.12,WUHU216HW,2013-07-30 17:38:00,
2013-07-30 12:43:00,78.6,72.6,29.61,NNW,338,2.9,3.8,82,0.00,,,1.12,WUHU216HW,2013-07-30 17:43:00,
2013-07-30 12:48:00,78.6,72.6,29.61,NNW,338,0.0,3.8,82,0.00,,,1.12,WUHU216HW,2013-07-30 17:48:00,
2013-07-30 12:53:00,78.4,72.5,29.61,NNW,338,0.0,2.6,82,0.00,,,1.12,WUHU216HW,2013-07-30 17:53:00,
2013-07-30 12:58:00,78.6,72.6,29.61,North,0,2.0,2.9,82,0.00,,,1.12,WUHU216HW,2013-07-30 17:58:00,
2013-07-30 13:03:00,78.4,72.8,29.62,NW,315,0.0,2.9,83,0.00,,,1.12,WUHU216HW,2013-07-30 18:03:00,
2013-07-30 13:08:00,78.4,72.8,29.61,NNW,338,0.2,2.0,83,0.00,,,1.12,WUHU216HW,2013-07-30 18:08:00,
2013-07-30 13:13:00,78.2,72.3,29.61,North,0,0.0,0.2,82,0.00,,,1.12,WUHU216HW,2013-07-30 18:13:00,
2013-07-30 13:18:00,78.2,72.3,29.61,NE,45,0.0,0.2,82,0.00,,,1.12,WUHU216HW,2013-07-30 18:18:00,
2013-07-30 13:23:00,78.4,72.8,29.61,South,180,0.0,0.0,83,0.00,,,1.12,WUHU216HW,2013-07-30 18:23:00,
2013-07-30 13:28:00,78.6,73.0,29.61,NW,315,0.0,0.0,83,0.00,,,1.12,WUHU216HW,2013-07-30 18:28:00,
2013-07-30 13:33:00,78.6,73.0,29.61,North,0,2.9,2.9,83,0.00,,,1.12,WUHU216HW,2013-07-30 18:33:00,
2013-07-30 13:38:00,78.6,72.6,29.61,North,0,2.0,5.1,82,0.00,,,1.12,WUHU216HW,2013-07-30 18:38:00,
2013-07-30 13:43:00,78.6,72.6,29.60,NNW,338,0.0,5.1,82,0.00,,,1.12,WUHU216HW,2013-07-30 18:43:00,
2013-07-30 13:48:00,78.9,73.0,29.61,North,0,0.0,2.0,82,0.00,,,1.12,WUHU216HW,2013-07-30 18:48:00,
2013-07-30 13:53:00,79.1,73.2,29.61,ENE,68,0.0,0.0,82,0.00,,,1.12,WUHU216HW,2013-07-30 18:53:00,
2013-07-30 13:58:00,79.3,73.3,29.60,NNE,23,0.0,0.0,82,0.00,,,1.12,WUHU216HW,2013-07-30 18:58:00,
2013-07-30 14:03:00,79.3,73.3,29.61,NE,45,0.0,0.0,82,0.00,,,1.12,WUHU216HW,2013-07-30 19:03:00,
2013-07-30 14:08:00,79.5,73.5,29.60,NW,315,1.1,1.1,82,0.00,,,1.12,WUHU216HW,2013-07-30 19:08:00,
2013-07-30 14:13:00,79.5,73.2,29.60,NW,315,0.0,1.1,81,0.00,,,1.12,WUHU216HW,2013-07-30 19:13:00,
2013-07-30 14:18:00,79.7,73.3,29.60,NE,45,0.0,1.1,81,0.00,,,1.12,WUHU216HW,2013-07-30 19:18:00,
2013-07-30 14:23:00,79.8,73.5,29.60,NW,315,0.0,1.3,81,0.00,,,1.12,WUHU216HW,2013-07-30 19:23:00,
2013-07-30 14:28:00,80.0,73.4,29.60,NNW,338,2.4,3.8,80,0.00,,,1.12,WUHU216HW,2013-07-30 19:28:00,
2013-07-30 14:33:00,80.2,73.5,29.60,NW,315,2.4,3.8,80,0.00,,,1.12,WUHU216HW,2013-07-30 19:33:00,
2013-07-30 14:38:00,80.4,73.3,29.61,NE,45,0.0,3.1,79,0.00,,,1.12,WUHU216HW,2013-07-30 19:38:00,
2013-07-30 14:43:00,80.6,73.5,29.61,North,0,0.0,4.0,79,0.00,,,1.12,WUHU216HW,2013-07-30 19:43:00,
2013-07-30 14:48:00,80.7,73.7,29.61,ENE,68,0.0,4.0,79,0.00,,,1.12,WUHU216HW,2013-07-30 19:48:00,
2013-07-30 14:53:00,80.4,73.3,29.61,NNW,338,0.0,2.6,79,0.00,,,1.12,WUHU216HW,2013-07-30 19:53:00,
2013-07-30 14:58:00,80.4,72.9,29.61,NW,315,5.1,5.1,78,0.00,,,1.12,WUHU216HW,2013-07-30 19:58:00,
2013-07-30 15:03:00,80.2,73.1,29.61,NW,315,0.0,5.1,79,0.00,,,1.12,WUHU216HW,2013-07-30 20:03:00,
2013-07-30 15:08:00,80.4,73.3,29.61,North,0,4.4,6.0,79,0.00,,,1.12,WUHU216HW,2013-07-30 20:08:00,
2013-07-30 15:13:00,80.6,73.1,29.60,WNW,293,0.0,6.0,78,0.00,,,1.12,WUHU216HW,2013-07-30 20:13:00,
2013-07-30 15:18:00,81.3,73.8,29.60,NNE,23,4.2,4.4,78,0.00,,,1.12,WUHU216HW,2013-07-30 20:18:00,
2013-07-30 15:23:00,81.8,74.3,29.61,NNW,338,0.0,4.2,78,0.00,,,1.12,WUHU216HW,2013-07-30 20:23:00,
2013-07-30 15:28:00,82.2,74.3,29.60,NW,315,6.2,6.2,77,0.00,,,1.12,WUHU216HW,2013-07-30 20:28:00,
2013-07-30 15:33:00,82.0,74.1,29.60,NNW,338,6.2,6.2,76,0.00,,,1.12,WUHU216HW,2013-07-30 20:33:00,
2013-07-30 15:38:00,82.0,74.1,29.60,ENE,68,0.0,6.2,77,0.00,,,1.12,WUHU216HW,2013-07-30 20:38:00,
2013-07-30 15:43:00,82.2,73.9,29.60,NNE,23,0.0,6.2,76,0.00,,,1.12,WUHU216HW,2013-07-30 20:43:00,
2013-07-30 15:48:00,81.8,73.1,29.60,NNW,338,6.7,8.0,75,0.00,,,1.12,WUHU216HW,2013-07-30 20:48:00,
2013-07-30 15:53:00,81.6,72.9,29.60,NW,315,1.5,8.0,75,0.00,,,1.12,WUHU216HW,2013-07-30 20:53:00,
2013-07-30 15:58:00,81.5,73.2,29.60,NNW,338,0.0,6.7,76,0.00,,,1.12,WUHU216HW,2013-07-30 20:58:00,
2013-07-30 16:03:00,81.6,73.3,29.60,North,0,0.0,5.1,76,0.00,,,1.12,WUHU216HW,2013-07-30 21:03:00,
2013-07-30 16:08:00,82.0,73.7,29.60,North,0,2.9,5.1,76,0.00,,,1.12,WUHU216HW,2013-07-30 21:08:00,
2013-07-30 16:13:00,82.0,72.9,29.60,NW,315,0.2,2.9,74,0.00,,,1.12,WUHU216HW,2013-07-30 21:13:00,
2013-07-30 16:18:00,82.0,73.3,29.61,NE,45,0.0,2.9,75,0.00,,,1.12,WUHU216HW,2013-07-30 21:18:00,
2013-07-30 16:23:00,82.0,73.7,29.60,NW,315,0.0,0.0,76,0.00,,,1.12,WUHU216HW,2013-07-30 21:23:00,
2013-07-30 16:28:00,82.2,73.9,29.61,NNW,338,0.0,3.3,76,0.00,,,1.12,WUHU216HW,2013-07-30 21:28:00,
2013-07-30 16:33:00,82.5,74.2,29.61,NW,315,0.0,3.3,76,0.00,,,1.12,WUHU216HW,2013-07-30 21:33:00,
2013-07-30 16:38:00,82.5,73.8,29.61,North,0,0.6,2.0,75,0.00,,,1.12,WUHU216HW,2013-07-30 21:38:00,
2013-07-30 16:43:00,82.2,73.4,29.61,NNW,338,6.7,6.7,75,0.00,,,1.12,WUHU216HW,2013-07-30 21:43:00,
2013-07-30 16:48:00,82.2,73.4,29.61,SE,135,0.0,6.7,75,0.00,,,1.12,WUHU216HW,2013-07-30 21:48:00,
2013-07-30 16:53:00,82.2,73.4,29.61,NNW,338,0.0,0.0,75,0.00,,,1.12,WUHU216HW,2013-07-30 21:53:00,
2013-07-30 16:58:00,82.7,74.0,29.61,North,0,5.8,5.8,75,0.00,,,1.12,WUHU216HW,2013-07-30 21:58:00,
2013-07-30 17:03:00,83.4,74.6,29.61,NNE,23,0.0,5.8,75,0.00,,,1.12,WUHU216HW,2013-07-30 22:03:00,
2013-07-30 17:08:00,84.0,74.8,29.61,NW,315,0.0,3.3,74,0.00,,,1.12,WUHU216HW,2013-07-30 22:08:00,
2013-07-30 17:13:00,84.2,74.1,29.61,North,0,0.0,3.3,72,0.00,,,1.12,WUHU216HW,2013-07-30 22:13:00,
2013-07-30 17:18:00,84.0,74.0,29.61,North,0,3.3,3.3,72,0.00,,,1.12,WUHU216HW,2013-07-30 22:18:00,
2013-07-30 17:23:00,84.0,74.0,29.61,NNW,338,4.0,4.0,72,0.00,,,1.12,WUHU216HW,2013-07-30 22:23:00,
2013-07-30 17:28:00,84.3,74.7,29.61,North,0,0.0,6.2,73,0.00,,,1.12,WUHU216HW,2013-07-30 22:28:00,
2013-07-30 17:33:00,84.3,74.3,29.61,NW,315,2.9,7.3,72,0.00,,,1.12,WUHU216HW,2013-07-30 22:33:00,
2013-07-30 17:38:00,83.8,73.8,29.61,NNW,338,9.8,9.8,72,0.00,,,1.12,WUHU216HW,2013-07-30 22:38:00,
2013-07-30 17:43:00,83.1,72.7,29.61,NNW,338,0.0,9.8,71,0.00,,,1.12,WUHU216HW,2013-07-30 22:43:00,
2013-07-30 17:48:00,82.0,72.0,29.61,NNW,338,0.0,4.4,72,0.00,,,1.12,WUHU216HW,2013-07-30 22:48:00,
2013-07-30 17:53:00,81.6,72.1,29.61,North,0,0.6,3.8,73,0.00,,,1.12,WUHU216HW,2013-07-30 22:53:00,
2013-07-30 17:58:00,81.6,72.5,29.61,North,0,0.0,2.6,74,0.00,,,1.12,WUHU216HW,2013-07-30 22:58:00,
2013-07-30 18:03:00,81.6,72.5,29.61,NNW,338,6.9,6.9,74,0.00,,,1.12,WUHU216HW,2013-07-30 23:03:00,
2013-07-30 18:08:00,81.8,72.7,29.61,NNW,338,7.6,7.6,74,0.00,,,1.12,WUHU216HW,2013-07-30 23:08:00,
2013-07-30 18:13:00,82.0,72.9,29.61,NNE,23,0.0,7.6,74,0.00,,,1.12,WUHU216HW,2013-07-30 23:13:00,
2013-07-30 18:18:00,82.2,72.6,29.61,WNW,293,4.6,7.6,73,0.00,,,1.12,WUHU216HW,2013-07-30 23:18:00,
2013-07-30 18:23:00,82.2,73.0,29.61,NNW,338,4.0,7.3,74,0.00,,,1.12,WUHU216HW,2013-07-30 23:23:00,
2013-07-30 18:28:00,82.2,73.0,29.61,NNE,23,0.0,4.4,74,0.00,,,1.12,WUHU216HW,2013-07-30 23:28:00,
2013-07-30 18:33:00,81.3,72.2,29.61,North,0,8.2,8.2,74,0.00,,,1.12,WUHU216HW,2013-07-30 23:33:00,
2013-07-30 18:38:00,80.7,71.7,29.61,NNW,338,0.0,8.2,74,0.00,,,1.12,WUHU216HW,2013-07-30 23:38:00,
2013-07-30 18:43:00,80.4,71.7,29.61,NNW,338,3.8,8.2,75,0.00,,,1.12,WUHU216HW,2013-07-30 23:43:00,
2013-07-30 18:48:00,79.7,71.4,29.61,NNW,338,3.1,3.8,76,0.00,,,1.12,WUHU216HW,2013-07-30 23:48:00,
2013-07-30 18:53:00,79.5,71.2,29.61,WNW,293,0.0,3.8,76,0.00,,,1.12,WUHU216HW,2013-07-30 23:53:00,
2013-07-30 18:58:00,79.1,71.3,29.61,NNE,23,0.0,3.1,77,0.00,,,1.12,WUHU216HW,2013-07-30 23:58:00,
2013-07-30 19:03:00,79.1,71.3,29.61,North,0,4.2,7.1,77,0.00,,,1.12,WUHU216HW,2013-07-31 00:03:00,
2013-07-30 19:08:00,79.1,71.3,29.61,NNW,338,3.1,7.1,77,0.00,,,1.12,WUHU216HW,2013-07-31 00:08:00,
2013-07-30 19:13:00,79.3,71.4,29.61,NW,315,0.0,4.2,77,0.00,,,1.12,WUHU216HW,2013-07-31 00:13:00,
2013-07-30 19:18:00,79.3,71.4,29.61,NNW,338,6.7,6.7,77,0.00,,,1.12,WUHU216HW,2013-07-31 00:18:00,
2013-07-30 19:23:00,79.1,71.7,29.60,North,0,0.0,6.7,78,0.00,,,1.12,WUHU216HW,2013-07-31 00:23:00,
2013-07-30 19:28:00,79.3,71.8,29.61,North,0,0.0,6.7,78,0.00,,,1.12,WUHU216HW,2013-07-31 00:28:00,
2013-07-30 19:33:00,79.3,71.4,29.61,ENE,68,0.0,2.6,77,0.00,,,1.12,WUHU216HW,2013-07-31 00:33:00,
2013-07-30 19:38:00,79.1,71.7,29.61,North,0,0.0,2.6,78,0.00,,,1.12,WUHU216HW,2013-07-31 00:38:00,
2013-07-30 19:43:00,78.6,71.1,29.61,North,0,0.0,2.2,78,0.00,,,1.12,WUHU216HW,2013-07-31 00:43:00,
2013-07-30 19:48:00,78.4,70.9,29.62,NE,45,0.0,2.2,78,0.00,,,1.12,WUHU216HW,2013-07-31 00:48:00,
2013-07-30 19:53:00,78.0,70.6,29.61,NNW,338,0.0,0.0,78,0.00,,,1.12,WUHU216HW,2013-07-31 00:53:00,
2013-07-30 19:58:00,77.9,70.4,29.62,North,0,2.9,2.9,78,0.00,,,1.12,WUHU216HW,2013-07-31 00:58:00,
2013-07-30 20:03:00,77.5,70.1,29.62,NNW,338,0.0,2.9,78,0.00,,,1.12,WUHU216HW,2013-07-31 01:03:00,
2013-07-30 20:08:00,77.5,70.4,29.62,NNW,338,0.0,0.0,79,0.00,,,1.12,WUHU216HW,2013-07-31 01:08:00,
2013-07-30 20:13:00,77.1,70.1,29.62,NW,315,0.0,0.0,79,0.00,,,1.12,WUHU216HW,2013-07-31 01:13:00,
2013-07-30 20:18:00,77.0,70.3,29.61,NNW,338,0.0,0.0,80,0.00,,,1.12,WUHU216HW,2013-07-31 01:18:00,
2013-07-30 20:19:00,77.0,70.3,29.61,NNW,338,0.0,0.0,80,0.00,,,1.12,WUHU216HW,2013-07-31 01:19:00,
2013-07-30 20:24:00,76.8,70.1,29.62,North,0,0.0,0.0,80,0.00,,,1.12,WUHU216HW,2013-07-31 01:24:00,
2013-07-30 20:29:00,76.6,70.0,29.62,NNW,338,0.0,0.0,80,0.00,,,1.12,WUHU216HW,2013-07-31 01:29:00,
2013-07-30 20:34:00,76.2,69.6,29.62,NNW,338,0.0,0.0,80,0.00,,,1.12,WUHU216HW,2013-07-31 01:34:00,
2013-07-30 20:39:00,76.1,69.8,29.62,NNW,338,0.0,0.0,81,0.00,,,1.12,WUHU216HW,2013-07-31 01:39:00,
2013-07-30 20:44:00,75.9,69.7,29.62,NNE,23,0.0,0.0,81,0.00,,,1.12,WUHU216HW,2013-07-31 01:44:00,
2013-07-30 20:49:00,75.7,69.5,29.62,North,0,0.0,0.0,81,0.00,,,1.12,WUHU216HW,2013-07-31 01:49:00,
2013-07-30 20:54:00,75.5,69.3,29.62,NNW,338,0.0,0.0,81,0.00,,,1.12,WUHU216HW,2013-07-31 01:54:00,
2013-07-30 20:59:00,75.3,69.2,29.63,NNW,338,0.0,0.0,81,0.00,,,1.12,WUHU216HW,2013-07-31 01:59:00,
2013-07-30 21:04:00,75.3,69.5,29.63,NNW,338,0.0,0.0,82,0.00,,,1.12,WUHU216HW,2013-07-31 02:04:00,
2013-07-30 21:09:00,75.0,69.2,29.63,NE,45,0.0,0.0,82,0.00,,,1.12,WUHU216HW,2013-07-31 02:09:00,
2013-07-30 21:14:00,75.0,69.2,29.63,NE,45,0.0,0.0,82,0.00,,,1.12,WUHU216HW,2013-07-31 02:14:00,
2013-07-30 21:19:00,75.0,69.5,29.63,NNW,338,0.0,0.0,83,0.00,,,1.12,WUHU216HW,2013-07-31 02:19:00,
2013-07-30 21:24:00,74.8,69.3,29.63,NNW,338,0.0,0.0,83,0.00,,,1.12,WUHU216HW,2013-07-31 02:24:00,
2013-07-30 21:29:00,74.8,69.3,29.64,NNE,23,0.0,0.0,83,0.00,,,1.12,WUHU216HW,2013-07-31 02:29:00,
2013-07-30 21:34:00,74.4,69.0,29.64,NE,45,0.0,0.0,83,0.00,,,1.12,WUHU216HW,2013-07-31 02:34:00,
2013-07-30 21:39:00,74.4,69.0,29.64,North,0,0.0,0.0,83,0.00,,,1.12,WUHU216HW,2013-07-31 02:39:00,
2013-07-30 21:44:00,74.3,69.1,29.64,North,0,0.0,0.0,84,0.00,,,1.12,WUHU216HW,2013-07-31 02:44:00,
2013-07-30 21:49:00,74.3,69.1,29.65,North,0,0.0,0.0,84,0.00,,,1.12,WUHU216HW,2013-07-31 02:49:00,
2013-07-30 21:54:00,74.1,69.0,29.65,North,0,0.0,0.0,84,0.00,,,1.12,WUHU216HW,2013-07-31 02:54:00,
2013-07-30 21:59:00,74.1,69.0,29.65,North,0,0.0,0.0,84,0.00,,,1.12,WUHU216HW,2013-07-31 02:59:00,
2013-07-30 22:04:00,73.9,69.1,29.66,NNE,23,0.0,0.0,85,0.00,,,1.12,WUHU216HW,2013-07-31 03:04:00,
2013-07-30 22:09:00,73.9,69.1,29.66,NE,45,0.0,0.0,85,0.00,,,1.12,WUHU216HW,2013-07-31 03:09:00,
2013-07-30 22:14:00,73.9,69.1,29.66,NE,45,0.0,0.0,85,0.00,,,1.12,WUHU216HW,2013-07-31 03:14:00,
2013-07-30 22:19:00,73.9,69.1,29.66,North,0,0.0,0.0,85,0.00,,,1.12,WUHU216HW,2013-07-31 03:19:00,
2013-07-30 22:24:00,73.9,69.1,29.67,NNE,23,0.0,0.0,85,0.00,,,1.12,WUHU216HW,2013-07-31 03:24:00,
2013-07-30 22:29:00,73.9,69.1,29.66,ENE,68,0.0,0.0,85,0.00,,,1.12,WUHU216HW,2013-07-31 03:29:00,
2013-07-30 22:34:00,73.9,69.1,29.66,North,0,0.0,0.0,85,0.00,,,1.12,WUHU216HW,2013-07-31 03:34:00,
2013-07-30 22:39:00,73.9,69.1,29.67,NNW,338,0.0,0.0,85,0.00,,,1.12,WUHU216HW,2013-07-31 03:39:00,
2013-07-30 22:44:00,73.9,69.1,29.67,North,0,0.0,0.0,85,0.00,,,1.12,WUHU216HW,2013-07-31 03:44:00,
2013-07-30 22:49:00,73.9,69.1,29.67,North,0,0.0,0.0,85,0.00,,,1.12,WUHU216HW,2013-07-31 03:49:00,
2013-07-30 22:54:00,73.9,69.1,29.67,NNW,338,0.0,0.0,85,0.00,,,1.12,WUHU216HW,2013-07-31 03:54:00,
2013-07-30 22:59:00,73.9,69.1,29.66,North,0,0.0,0.0,85,0.00,,,1.12,WUHU216HW,2013-07-31 03:59:00,
2013-07-30 23:01:00,73.9,69.1,29.67,North,0,0.0,0.0,85,0.00,,,1.12,WUHU216HW,2013-07-31 04:01:00,
2013-07-30 23:02:00,73.9,69.1,29.67,NNE,23,0.0,0.0,85,0.00,,,1.12,WUHU216HW,2013-07-31 04:02:00,
2013-07-30 23:07:00,73.9,69.1,29.66,North,0,0.0,0.0,85,0.00,,,1.12,WUHU216HW,2013-07-31 04:07:00,
2013-07-30 23:12:00,73.9,69.5,29.66,NNW,338,0.0,0.0,86,0.00,,,1.12,WUHU216HW,2013-07-31 04:12:00,
2013-07-30 23:17:00,73.9,69.5,29.67,North,0,0.0,0.0,86,0.00,,,1.12,WUHU216HW,2013-07-31 04:17:00,
2013-07-30 23:22:00,73.9,69.5,29.67,NW,315,0.0,0.0,86,0.00,,,1.12,WUHU216HW,2013-07-31 04:22:00,
2013-07-30 23:27:00,73.9,69.3,29.67,North,0,0.0,0.0,86,0.00,,,1.12,WUHU216HW,2013-07-31 04:27:00,
2013-07-30 23:32:00,73.7,69.3,29.67,NW,315,0.0,0.0,86,0.00,,,1.12,WUHU216HW,2013-07-31 04:32:00,
2013-07-30 23:37:00,73.7,69.3,29.67,NNW,338,0.0,0.0,86,0.00,,,1.12,WUHU216HW,2013-07-31 04:37:00,
2013-07-30 23:42:00,73.5,69.1,29.67,NNW,338,0.0,0.0,86,0.00,,,1.12,WUHU216HW,2013-07-31 04:42:00,
2013-07-30 23:47:00,73.5,69.1,29.66,NNW,338,0.0,0.0,86,0.00,,,1.12,WUHU216HW,2013-07-31 04:47:00,
2013-07-30 23:52:00,73.4,68.9,29.66,NNE,23,0.0,0.0,86,0.00,,,1.12,WUHU216HW,2013-07-31 04:52:00,
2013-07-30 23:57:00,73.2,68.7,29.66,NNW,338,0.0,0.0,86,0.00,,,1.12,WUHU216HW,2013-07-31 04:57:00,